Bargerville, Illinois
Current Conditions -  °F | °C
As of 1:55 AM on Friday 19 Dec 2014 (Local Time) from KM30 Reporting Station
Haze Haze  
Wind Chill: 34°   Ceiling: 4100
Heat Index: 34°   Visibility: 5mi
Dew Point: 32°   Wind: 3mph
Humidity: 94%   Direction: 10°N
Pressure: 30.27"   Gusts: NA
Location:  37.2288°N, 88.7044°W
Report Text: KM30 190755Z AUTO 01003KT 5SM BR BKN041 OVC055 01/00 A3027 RMK AO2 T00110002
Loading
Personal Weather Stations






























Interactive Weather Map New forecast layout! Learn more

10-Day Weather Forecast

Advertisements
Track Severe Weather on mobile